Grand Junction, Michigan
Current Conditions -  °F | °C
As of 10:15 PM on Thursday 18 Dec 2014 (Local Time) from KLWA Reporting Station
Overcast Overcast  
Wind Chill: 26°   Ceiling: 3400
Heat Index: 32°   Visibility: 10mi
Dew Point: 28°   Wind: 7mph
Humidity: 84%   Direction: 10°N
Pressure: 30.21"   Gusts: NA
Location:  42.4°N, 86.07°W
Report Text: KLWA 190315Z AUTO 01006KT 10SM SCT019 OVC034 00/M02 A3021 RMK AO2 T00001024
Loading
Personal Weather Stations






























Interactive Weather Map New forecast layout! Learn more

10-Day Weather Forecast

Advertisements
Track Severe Weather on mobile